ANDREWS_AFB current weather conditions

sailwx.info

Wind from 290 at 9 knots gusting 18

Air temperature 7.4° C
Visibility: greater than 8.7 NM
Dewpoint -6.7° C

Last reported at 2019-Dec-05 20:56 UTC.
Time now 2019-Dec-05 21:43 UTC

Location: N 38°49' W 076°52'.
View on Google Maps.

See reports from other nearby stations

  
Tides and Currents Weather Stations Pressure Air Temp Water Temp Dewpoint Dewpoint Depression Visibility Wind Speed Wind Dir Waves Ship Positions
date/time (UTC)wind fromknots sea level pressurealtimeterstation pressurevisibilityair tempwater tempwave heightnotes
2019-Dec-05 20:56 290 9 gusting 18 8.7 7.4
2019-Dec-05 19:56 280 14 gusting 21 8.7 7.9
2019-Dec-05 18:56 290 15 gusting 20 8.7 7.7
2019-Dec-05 18:25 320 13 gusting 20 8.7 8.0
2019-Dec-05 18:18 280 13 gusting 21 8.7 8.0
2019-Dec-05 17:56 290 13 gusting 22 8.7 7.3
2019-Dec-05 16:56 290 14 gusting 22 8.7 6.2
2019-Dec-05 16:46 280 13 gusting 22 8.7 6.0
2019-Dec-05 15:56 290 13 gusting 20 8.7 6.3
2019-Dec-05 14:56 280 15 gusting 19 8.7 6.1
2019-Dec-05 13:56 280 7 8.7 5.1
2019-Dec-05 12:56 290 6 gusting 15 8.7 3.9
2019-Dec-05 11:56 250 6 8.7 3.3
2019-Dec-05 10:56 300 6 8.7 4.2
2019-Dec-05 09:56 290 9 8.7 4.4
2019-Dec-05 08:56 280 11 8.7 4.2
2019-Dec-05 07:56 290 11 8.7 4.2
2019-Dec-05 07:15 260 7 8.7 5.0
2019-Dec-05 07:06 260 8 8.7 5.0 Light rain.
2019-Dec-05 07:04 260 9 8.7 5.0 Light rain.
2019-Dec-05 06:56 260 7 8.7 4.8
2019-Dec-05 05:56 250 6 8.7 5.0
2019-Dec-05 04:56 310 6 8.7 6.2
2019-Dec-05 03:56 280 4 8.7 5.2
2019-Dec-05 02:56 280 5 8.7 5.3
2019-Dec-05 01:56 290 5 8.7 5.0
2019-Dec-05 00:56 300 4 8.7 5.7
2019-Dec-04 23:56 290 8 gusting 15 8.7 7.1
2019-Dec-04 22:56 300 2 8.7 6.7
2019-Dec-04 22:11 300 5 8.7 7.0
2019-Dec-04 21:59 8.7 7.0 Light rain.
2019-Dec-04 21:56 320 4 8.7 8.1
2019-Dec-04 21:51 310 5 8.7 8.0
2019-Dec-04 21:42 270 4 8.7 8.0 Light drizzle.
2019-Dec-04 21:37 260 6 8.7 8.0
2019-Dec-04 21:12 280 6 8.7 8.0 Light rain.
2019-Dec-04 20:59 260 6 gusting 14 8.7 8.0
2019-Dec-04 20:56 260 9 gusting 14 8.7 8.3 Light rain.
2019-Dec-04 20:49 230 6 8.7 9.0 Light rain.
2019-Dec-04 19:56 230 6 8.7 9.3
2019-Dec-04 18:56 250 9 8.7 8.1
2019-Dec-04 17:56 210 6 8.7 7.8
2019-Dec-04 16:56 210 8 8.7 6.9
2019-Dec-04 15:56 200 7 8.7 5.3
2019-Dec-04 13:56 210 6 8.7 3.0
2019-Dec-04 12:56 190 2 8.7 1.8
2019-Dec-04 11:56 220 4 8.7 1.7
2019-Dec-04 10:56 200 2 8.7 2.4
2019-Dec-04 09:56 280 2 8.7 2.9
2019-Dec-04 09:12 8.7 3.0
2019-Dec-04 08:57 300 4 8.7 3.0
2019-Dec-04 08:56 290 4 8.7 2.7 Light drizzle.
2019-Dec-04 08:15 310 5 8.7 3.0 Light rain.
2019-Dec-04 07:57 310 8 8.7 3.0
2019-Dec-04 07:56 300 8 8.7 3.1 Light rain.
2019-Dec-04 07:36 290 5 8.7 3.0 Light rain.
2019-Dec-04 06:56 290 2 8.7 2.2
2019-Dec-04 05:56 8.7 0.1
2019-Dec-04 04:56 300 5 8.7 2.9
2019-Dec-04 03:56 300 4 8.7 2.3
2019-Dec-04 02:56 8.7 2.9
2019-Dec-04 01:56 8.7 3.1
2019-Dec-04 00:56 030 2 8.7 0.9
2019-Dec-03 23:56 330 6 8.7 3.7
2019-Dec-03 22:56 330 7 8.7 5.0
2019-Dec-03 21:56 300 4 8.7 5.5